Spring Mountain Youth Camp, Nevada Weather observations

Data are for 60 minute period ending at time listed.
 Day   Time   Solar   Ave.   Ave.  Ave.  Vector  Max.   Baro.   Total    
  of    of     Rad.   Air    Rel.  Wind   Wind   Wind  Press.  Precip.   
Year   Day            Temp.  Hum.  Speed  Dir.   Gust                    
2017   (PST)  Kw/m2    F      %     mph   deg.    mph    mb.     in.     
-------------------------------------------------------------------------
 119   23:00   0.00   36.1    28    0.6   141     2.6   793.1    0.00 
 120    0:00   0.00   36.1    28    0.7   166     3.4   793.2    0.00 
 120    1:00   0.00   35.1    30    1.5   169     4.1   793.0    0.00 
 120    2:00   0.00   36.0    28    1.8   152     5.2   792.9    0.00 
 120    3:00   0.00   36.1    28    1.7   156     5.3   792.7    0.00 
 120    4:00   0.00   37.2    27    2.0   155     5.7   792.5    0.00 
 120    5:00   0.00   36.4    28    1.4   187     6.9   792.3    0.00 
 120    6:00   0.02   36.5    29    1.6   344     5.7   792.6    0.00 
 120    7:00   0.27   42.1    26    1.9     9     7.9   793.0    0.00 
 120    8:00   0.28   46.4    24    2.6    21    10.7   793.4    0.00 
 120    9:00   0.68   49.3    20    3.1    83    10.2   793.6    0.00 
 120   10:00   0.85   51.8    19    3.8    22    11.5   793.7    0.00 
 120   11:00   0.98   52.5    19    4.9    23    13.7   793.6    0.00 
 120   12:00   1.04   54.9    19    3.8    17    14.8   793.2    0.00 
 120   13:00   1.04   56.2    18    4.5    22    15.4   793.0    0.00 
 120   14:00   0.99   57.3    16    4.5    28    16.3   792.8    0.00 
 120   15:00   0.86   58.2    16    3.7    56    13.4   792.4    0.00 
 120   16:00   0.68   57.7    15    3.7   138    15.2   792.2    0.00 
 120   17:00   0.46   56.9    14    3.7   161    12.1   792.1    0.00 
 120   18:00   0.19   53.8    17    3.4   226    13.4   792.2    0.00 
 120   19:00   0.01   49.6    18    1.4   250     6.6   791.7    0.00 
 120   20:00   0.00   48.2    20    2.0   221     6.3   791.6    0.00 
 120   21:00   0.00   46.7    22    1.9   128     6.0   791.6    0.00 
 120   22:00   0.00   46.4    22    3.4   144     7.9   791.6    0.00 

Return to Spring Mountain Youth Camp graphs page.


Western Regional Climate Center,wrcc@dri.edu